Overseas Luzon — V7NE5 — position and weather

sailwx.info

Track history (hours):
 
Tides and Currents Weather Stations Pressure Air Temp Water Temp Dewpoint Dewpoint Depression Visibility Wind Speed Wind Dir Waves Ship Positions

Overseas Luzon

Last reported at 2015-Dec-18 01:33 UTC. Time now 2016-Feb-06 23:23 UTC.
Position N 35°40' W 124°07'.
Warning: this ship's position is 50 days out of date.

Length 228 m; draft 8.1 m.

Type: Tanker. MMSI: 538002946.

Date/timePositionNaut miles runAvg speedWind from/ knotsBaromVisibWave heightAir tempDewpointWater temp
2015-Dec-18 01:33N 35°40' W 124°07'2016.0
2015-Dec-18 00:17N 35°58' W 123°57'5015.8
2015-Dec-17 21:06N 36°44' W 123°31'915.6
2015-Dec-17 20:33N 36°52' W 123°27'1515.1
2015-Dec-17 19:33N 37°06' W 123°19'1615.4
2015-Dec-17 18:32N 37°20' W 123°11'1515.4
2015-Dec-17 17:33N 37°34' W 123°04'1515.0
2015-Dec-17 16:33N 37°42' W 122°48'1312.6
2015-Dec-17 15:33N 37°47' W 122°33'1212.2
2015-Dec-17 14:33N 37°58' W 122°26'1312.9
2015-Dec-17 13:33N 38°03' W 122°11'3 0.1
2015-Dec-15 15:06N 38°02' W 122°08'0 0.6
2015-Dec-15 14:32N 38°02' W 122°08'0 0.4
2015-Dec-15 13:33N 38°02' W 122°08'7 6.7
2015-Dec-15 12:33N 38°04' W 122°16'1010.1
2015-Dec-15 11:33N 37°57' W 122°27'1110.8
2015-Dec-15 10:33N 37°47' W 122°22'3 2.8
2015-Dec-15 09:33N 37°45' W 122°21'0 0.0
2015-Dec-15 08:33N 37°45' W 122°21'0 0.0
2015-Dec-15 07:31N 37°45' W 122°21'0 0.0
2015-Dec-15 06:31N 37°45' W 122°21'0 0.0
2015-Dec-15 05:31N 37°45' W 122°21'0 0.2
2015-Dec-15 04:31N 37°45' W 122°21'0 0.0
2015-Dec-15 03:31N 37°45' W 122°21'0 0.0
2015-Dec-15 02:31N 37°45' W 122°21'0 0.0
2015-Dec-15 01:31N 37°45' W 122°21'0 0.0
2015-Dec-15 00:31N 37°45' W 122°21'0 0.0
2015-Dec-14 23:31N 37°45' W 122°21'0 0.2
2015-Dec-14 22:31N 37°45' W 122°21'0 0.1
2015-Dec-14 21:31N 37°45' W 122°21'0 0.0
2015-Dec-14 20:31N 37°45' W 122°20'0 0.0
2015-Dec-14 19:31N 37°45' W 122°21'0 0.0
2015-Dec-14 18:31N 37°45' W 122°20'0 0.0
2015-Dec-14 17:31N 37°45' W 122°20'0 0.0
2015-Dec-14 16:31N 37°45' W 122°20'0 0.2
2015-Dec-14 15:31N 37°45' W 122°21'0 0.1
2015-Dec-14 14:31N 37°45' W 122°21'0 0.0
2015-Dec-14 13:31N 37°45' W 122°21'0 0.2
2015-Dec-14 12:31N 37°45' W 122°21'0 0.2
2015-Dec-14 11:31N 37°45' W 122°20'0 0.0
2015-Dec-14 10:31N 37°45' W 122°20'0 0.0
2015-Dec-14 09:31N 37°45' W 122°20'0 0.0
2015-Dec-14 08:31N 37°45' W 122°21'0 0.0
2015-Dec-14 07:31N 37°45' W 122°20'0 0.0
2015-Dec-14 06:31N 37°45' W 122°21'0 0.0
2015-Dec-14 05:31N 37°45' W 122°20'0 0.0
2015-Dec-14 04:31N 37°45' W 122°20'0 0.3
2015-Dec-14 03:31N 37°45' W 122°21'0 0.0
2015-Dec-14 02:31N 37°45' W 122°21'0 0.0
2015-Dec-14 01:31N 37°45' W 122°21'0 0.0
2015-Dec-14 00:31N 37°45' W 122°21'0 0.0
2015-Dec-13 23:31N 37°45' W 122°21'0 0.0
2015-Dec-13 22:31N 37°45' W 122°21'0 0.3
2015-Dec-13 21:31N 37°45' W 122°20'0 0.1
2015-Dec-13 20:31N 37°45' W 122°20'0 0.1
2015-Dec-13 19:31N 37°45' W 122°20'0 0.0
2015-Dec-13 18:31N 37°45' W 122°20'0 0.0
2015-Dec-13 17:31N 37°45' W 122°20'0 0.2
2015-Dec-13 16:31N 37°45' W 122°20'0 0.2
2015-Dec-13 15:31N 37°45' W 122°21'0 0.0
2015-Dec-13 14:31N 37°45' W 122°21'0 0.0
2015-Dec-13 13:31N 37°45' W 122°21'0 0.0
2015-Dec-13 12:31N 37°45' W 122°21'0 0.0
2015-Dec-13 11:31N 37°45' W 122°21'0 0.0
2015-Dec-13 10:31N 37°45' W 122°21'0 0.2
2015-Dec-13 09:31N 37°45' W 122°20'0 0.1
2015-Dec-13 08:31N 37°45' W 122°20'0 0.0
2015-Dec-13 07:31N 37°45' W 122°20'0 0.0
2015-Dec-13 06:31N 37°45' W 122°20'0 0.0
2015-Dec-13 05:34N 37°45' W 122°20'1 1.5
2015-Dec-13 04:33N 37°46' W 122°21'7 7.2
2015-Dec-13 03:34N 37°49' W 122°30'1111.3
2015-Dec-13 02:33N 37°43' W 122°43'9 8.7
2015-Dec-13 01:33N 37°38' W 122°51'9 9.4
2015-Dec-13 00:34N 37°33' W 123°01'11 9.8
2015-Dec-12 23:27N 37°23' W 123°07'  
2015-Dec-09 13:09N 29°59' W 121°35'5912.7
2015-Dec-09 08:29N 29°14' W 120°51'  
Track history (hours):
 
Tides and Currents Weather Stations Pressure Air Temp Water Temp Dewpoint Dewpoint Depression Visibility Wind Speed Wind Dir Waves Ship Positions

Overseas Luzon

Last reported at 2015-Dec-18 01:33 UTC. Time now 2016-Feb-06 23:23 UTC.
Position N 35°40' W 124°07'.
Warning: this ship's position is 50 days out of date.

Length 228 m; draft 8.1 m.

Type: Tanker. MMSI: 538002946.

Date/timePositionNaut miles runAvg speedWind from/ knotsBaromVisibWave heightAir tempDewpointWater temp
2015-Dec-18 01:33N 35°40' W 124°07'2016.0
2015-Dec-18 00:17N 35°58' W 123°57'5015.8
2015-Dec-17 21:06N 36°44' W 123°31'915.6
2015-Dec-17 20:33N 36°52' W 123°27'1515.1
2015-Dec-17 19:33N 37°06' W 123°19'1615.4
2015-Dec-17 18:32N 37°20' W 123°11'1515.4
2015-Dec-17 17:33N 37°34' W 123°04'1515.0
2015-Dec-17 16:33N 37°42' W 122°48'1312.6
2015-Dec-17 15:33N 37°47' W 122°33'1212.2
2015-Dec-17 14:33N 37°58' W 122°26'1312.9
2015-Dec-17 13:33N 38°03' W 122°11'3 0.1
2015-Dec-15 15:06N 38°02' W 122°08'0 0.6
2015-Dec-15 14:32N 38°02' W 122°08'0 0.4
2015-Dec-15 13:33N 38°02' W 122°08'7 6.7
2015-Dec-15 12:33N 38°04' W 122°16'1010.1
2015-Dec-15 11:33N 37°57' W 122°27'1110.8
2015-Dec-15 10:33N 37°47' W 122°22'3 2.8
2015-Dec-15 09:33N 37°45' W 122°21'0 0.0
2015-Dec-15 08:33N 37°45' W 122°21'0 0.0
2015-Dec-15 07:31N 37°45' W 122°21'0 0.0
2015-Dec-15 06:31N 37°45' W 122°21'0 0.0
2015-Dec-15 05:31N 37°45' W 122°21'0 0.2
2015-Dec-15 04:31N 37°45' W 122°21'0 0.0
2015-Dec-15 03:31N 37°45' W 122°21'0 0.0
2015-Dec-15 02:31N 37°45' W 122°21'0 0.0
2015-Dec-15 01:31N 37°45' W 122°21'0 0.0
2015-Dec-15 00:31N 37°45' W 122°21'0 0.0
2015-Dec-14 23:31N 37°45' W 122°21'0 0.2
2015-Dec-14 22:31N 37°45' W 122°21'0 0.1
2015-Dec-14 21:31N 37°45' W 122°21'0 0.0
2015-Dec-14 20:31N 37°45' W 122°20'0 0.0
2015-Dec-14 19:31N 37°45' W 122°21'0 0.0
2015-Dec-14 18:31N 37°45' W 122°20'0 0.0
2015-Dec-14 17:31N 37°45' W 122°20'0 0.0
2015-Dec-14 16:31N 37°45' W 122°20'0 0.2
2015-Dec-14 15:31N 37°45' W 122°21'0 0.1
2015-Dec-14 14:31N 37°45' W 122°21'0 0.0
2015-Dec-14 13:31N 37°45' W 122°21'0 0.2
2015-Dec-14 12:31N 37°45' W 122°21'0 0.2
2015-Dec-14 11:31N 37°45' W 122°20'0 0.0
2015-Dec-14 10:31N 37°45' W 122°20'0 0.0
2015-Dec-14 09:31N 37°45' W 122°20'0 0.0
2015-Dec-14 08:31N 37°45' W 122°21'0 0.0
2015-Dec-14 07:31N 37°45' W 122°20'0 0.0
2015-Dec-14 06:31N 37°45' W 122°21'0 0.0
2015-Dec-14 05:31N 37°45' W 122°20'0 0.0
2015-Dec-14 04:31N 37°45' W 122°20'0 0.3
2015-Dec-14 03:31N 37°45' W 122°21'0 0.0
2015-Dec-14 02:31N 37°45' W 122°21'0 0.0
2015-Dec-14 01:31N 37°45' W 122°21'0 0.0
2015-Dec-14 00:31N 37°45' W 122°21'0 0.0
2015-Dec-13 23:31N 37°45' W 122°21'0 0.0
2015-Dec-13 22:31N 37°45' W 122°21'0 0.3
2015-Dec-13 21:31N 37°45' W 122°20'0 0.1
2015-Dec-13 20:31N 37°45' W 122°20'0 0.1
2015-Dec-13 19:31N 37°45' W 122°20'0 0.0
2015-Dec-13 18:31N 37°45' W 122°20'0 0.0
2015-Dec-13 17:31N 37°45' W 122°20'0 0.2
2015-Dec-13 16:31N 37°45' W 122°20'0 0.2
2015-Dec-13 15:31N 37°45' W 122°21'0 0.0
2015-Dec-13 14:31N 37°45' W 122°21'0 0.0
2015-Dec-13 13:31N 37°45' W 122°21'0 0.0
2015-Dec-13 12:31N 37°45' W 122°21'0 0.0
2015-Dec-13 11:31N 37°45' W 122°21'0 0.0
2015-Dec-13 10:31N 37°45' W 122°21'0 0.2
2015-Dec-13 09:31N 37°45' W 122°20'0 0.1
2015-Dec-13 08:31N 37°45' W 122°20'0 0.0
2015-Dec-13 07:31N 37°45' W 122°20'0 0.0
2015-Dec-13 06:31N 37°45' W 122°20'0 0.0
2015-Dec-13 05:34N 37°45' W 122°20'1 1.5
2015-Dec-13 04:33N 37°46' W 122°21'7 7.2
2015-Dec-13 03:34N 37°49' W 122°30'1111.3
2015-Dec-13 02:33N 37°43' W 122°43'9 8.7
2015-Dec-13 01:33N 37°38' W 122°51'9 9.4
2015-Dec-13 00:34N 37°33' W 123°01'11 9.8
2015-Dec-12 23:27N 37°23' W 123°07'  
2015-Dec-09 13:09N 29°59' W 121°35'5912.7
2015-Dec-09 08:29N 29°14' W 120°51'  

Dump ship's entire track history